Terminal Aerodrome Forecast
Issued by NWS

Home | Current Version | Previous Version | Text Only | Print | Product List | Glossary Off
Versions: 1 2 3 4 5 6 7 8 9 10 11 12 13 14 15 16 17 18 19 20 21 22

000
FTUS43 KOAX 252335 CCA
TAFCDR
TAF COR
KCDR 252335Z 2600/2624 04013KT P6SM VCSH OVC015
      TEMPO 2600/2602 2SM -SN
     FM260200 01005KT 2SM BR OVC015
     FM261500 07007KT P6SM OVC025=

USA.gov is the U.S. government's official web portal to all federal, state and local government web resources and services.